createdAt,value
2018-02-06T00:01:27.384Z,0.20
2018-02-06T00:03:53.804Z,0.10
2018-02-06T00:06:20.980Z,0.10
2018-02-06T00:08:47.383Z,0.00
2018-02-06T00:11:14.552Z,0.10
2018-02-06T00:13:40.997Z,0.10
2018-02-06T00:16:07.412Z,0.00
2018-02-06T00:18:33.812Z,0.10
2018-02-06T00:21:00.233Z,0.20
2018-02-06T00:23:26.640Z,0.10
2018-02-06T00:25:53.068Z,0.10
2018-02-06T00:28:19.593Z,0.20
2018-02-06T00:30:46.017Z,0.20
2018-02-06T00:33:12.480Z,0.20
2018-02-06T00:35:38.925Z,0.20
2018-02-06T00:38:05.264Z,0.30
2018-02-06T00:40:31.689Z,0.20
2018-02-06T00:42:58.869Z,0.20
2018-02-06T00:45:26.020Z,0.30
2018-02-06T00:47:53.156Z,0.30
2018-02-06T00:50:19.597Z,0.20
2018-02-06T00:52:46.041Z,0.20
2018-02-06T00:55:13.276Z,0.30
2018-02-06T00:57:39.701Z,0.30
2018-02-06T01:00:06.097Z,0.30
2018-02-06T01:02:32.536Z,0.30
2018-02-06T01:04:58.978Z,0.30
2018-02-06T01:07:26.138Z,0.20
2018-02-06T01:09:52.797Z,0.20
2018-02-06T01:12:19.244Z,0.20
2018-02-06T01:14:46.445Z,0.20
2018-02-06T01:17:12.850Z,0.20
2018-02-06T01:19:39.259Z,0.20
2018-02-06T01:22:06.409Z,0.20
2018-02-06T01:24:33.563Z,0.10
2018-02-06T01:27:00.752Z,0.10
2018-02-06T01:29:27.294Z,0.10
2018-02-06T01:31:53.709Z,0.10
2018-02-06T01:34:20.200Z,0.20
2018-02-06T01:36:46.593Z,0.20
2018-02-06T01:39:13.013Z,0.20
2018-02-06T01:41:46.424Z,0.10
2018-02-06T01:44:12.834Z,0.20
2018-02-06T01:46:39.229Z,0.10
2018-02-06T01:49:05.614Z,0.10
2018-02-06T01:51:32.025Z,0.20
2018-02-06T01:53:58.481Z,0.20
2018-02-06T01:56:24.916Z,0.20
2018-02-06T01:58:51.353Z,0.10
2018-02-06T02:01:17.869Z,0.10
2018-02-06T02:03:44.271Z,0.10
2018-02-06T02:06:11.496Z,0.10
2018-02-06T02:08:37.920Z,0.10
2018-02-06T02:11:04.456Z,0.10
2018-02-06T02:13:30.877Z,0.00
2018-02-06T02:15:58.016Z,0.10
2018-02-06T02:18:24.428Z,0.10
2018-02-06T02:20:50.865Z,0.00
2018-02-06T02:23:17.316Z,0.00
2018-02-06T02:25:43.797Z,-0.10
2018-02-06T02:28:10.945Z,0.00
2018-02-06T02:30:37.361Z,0.00
2018-02-06T02:33:03.784Z,0.00
2018-02-06T02:35:30.961Z,-0.10
2018-02-06T02:37:58.206Z,-0.10
2018-02-06T02:40:24.617Z,-0.10
2018-02-06T04:40:02.251Z,-0.10
2018-02-06T04:42:28.672Z,-0.10
2018-02-06T04:45:02.095Z,-0.10
2018-02-06T04:47:28.517Z,-0.10
2018-02-06T04:49:54.941Z,0.00
2018-02-06T04:52:21.381Z,0.00
2018-02-06T04:54:47.768Z,0.00
2018-02-06T04:57:14.209Z,0.00
2018-02-06T04:59:41.352Z,0.00
2018-02-06T05:02:07.744Z,0.00
2018-02-06T05:04:34.168Z,0.00
2018-02-06T05:07:00.692Z,0.00
2018-02-06T05:09:27.097Z,0.00
2018-02-06T05:11:54.256Z,-0.10
2018-02-06T05:14:21.409Z,0.00
2018-02-06T05:16:48.548Z,0.00
2018-02-06T05:19:15.712Z,0.00
2018-02-06T05:21:42.132Z,0.00
2018-02-06T05:24:09.323Z,0.00
2018-02-06T05:26:35.807Z,0.00
2018-02-06T05:29:03.008Z,0.10
2018-02-06T05:31:29.425Z,0.10
2018-02-06T05:33:55.853Z,0.10
2018-02-06T05:36:22.339Z,0.10
2018-02-06T05:38:49.504Z,0.00
2018-02-06T05:41:15.914Z,0.00
2018-02-06T05:43:42.370Z,0.00
2018-02-06T05:46:08.828Z,0.00
2018-02-06T05:48:35.314Z,0.00
2018-02-06T05:51:01.742Z,0.00
2018-02-06T05:53:28.924Z,0.00
2018-02-06T05:55:56.068Z,0.00
2018-02-06T05:58:23.217Z,-0.10
2018-02-06T06:00:49.633Z,-0.10
2018-02-06T06:03:16.071Z,0.00
2018-02-06T06:05:42.531Z,0.00
2018-02-06T06:08:09.848Z,-0.10
2018-02-06T06:10:36.280Z,-0.10
2018-02-06T06:13:02.700Z,0.00
2018-02-06T06:15:29.088Z,0.00
2018-02-06T06:17:56.289Z,0.00
2018-02-06T06:20:22.725Z,-0.10
2018-02-06T06:22:49.148Z,0.00
2018-02-06T06:25:15.589Z,0.00
2018-02-06T06:27:42.048Z,0.00
2018-02-06T06:30:09.217Z,-0.10
2018-02-06T06:32:36.396Z,-0.10
2018-02-06T06:35:03.513Z,-0.10
2018-02-06T06:37:30.668Z,0.00
2018-02-06T06:39:57.864Z,0.00
2018-02-06T06:42:24.277Z,0.00
2018-02-06T06:44:50.797Z,0.00
2018-02-06T06:47:17.212Z,0.00
2018-02-06T06:49:44.348Z,0.00
2018-02-06T06:52:10.775Z,-0.10
2018-02-06T06:54:37.180Z,-0.10
2018-02-06T06:57:03.592Z,-0.10
2018-02-06T06:59:30.011Z,-0.20
2018-02-06T07:01:56.432Z,-0.20
2018-02-06T07:04:23.572Z,-0.10
2018-02-06T07:06:50.070Z,-0.10
2018-02-06T07:09:16.498Z,-0.10
2018-02-06T07:11:42.910Z,0.00
2018-02-06T07:14:09.336Z,0.00
2018-02-06T07:16:35.831Z,0.00
2018-02-06T07:19:03.136Z,0.10
2018-02-06T07:21:29.517Z,0.00
2018-02-06T07:23:56.668Z,-0.10
2018-02-06T07:26:23.856Z,0.00
2018-02-06T07:28:50.348Z,-0.10
2018-02-06T07:31:16.768Z,0.00
2018-02-06T07:33:43.174Z,-0.10
2018-02-06T07:36:09.587Z,-0.10
2018-02-06T07:38:36.053Z,-0.10
2018-02-06T07:41:02.444Z,-0.10
2018-02-06T07:43:28.922Z,-0.10
2018-02-06T07:45:55.451Z,0.00
2018-02-06T07:48:21.881Z,0.00
2018-02-06T07:50:49.033Z,0.10
2018-02-06T07:53:15.493Z,0.10
2018-02-06T07:55:41.873Z,0.10
2018-02-06T07:58:08.289Z,0.10
2018-02-06T08:00:34.705Z,0.10
2018-02-06T08:03:01.825Z,0.10
2018-02-06T08:05:28.255Z,0.00
2018-02-06T08:07:55.416Z,0.10
2018-02-06T08:10:21.812Z,0.10
2018-02-06T08:12:48.238Z,0.10
2018-02-06T08:15:14.765Z,0.20
2018-02-06T08:17:41.227Z,0.20
2018-02-06T08:20:07.653Z,0.30
2018-02-06T08:22:34.093Z,0.30
2018-02-06T08:25:01.258Z,0.20
2018-02-06T08:27:27.656Z,0.20
2018-02-06T08:29:54.061Z,0.30
2018-02-06T08:32:21.218Z,0.10
2018-02-06T08:34:47.629Z,0.00
2018-02-06T08:37:14.809Z,0.10
2018-02-06T08:39:41.205Z,0.00
2018-02-06T08:42:07.629Z,0.10
2018-02-06T08:44:34.081Z,0.30
2018-02-06T08:47:01.342Z,0.50
2018-02-06T08:49:28.549Z,0.50
2018-02-06T08:51:54.951Z,0.50
2018-02-06T08:54:21.387Z,0.60
2018-02-06T08:56:47.829Z,0.60
2018-02-06T08:59:14.306Z,0.60
2018-02-06T09:01:40.741Z,0.70
2018-02-06T09:04:07.996Z,0.70
2018-02-06T09:06:34.405Z,0.60
2018-02-06T09:09:00.817Z,0.70
2018-02-06T09:11:27.260Z,0.70
2018-02-06T09:13:53.696Z,0.60
2018-02-06T09:16:20.150Z,0.60
2018-02-06T09:18:46.554Z,0.60
2018-02-06T09:21:12.977Z,0.60
2018-02-06T09:23:39.382Z,0.80
2018-02-06T09:26:05.869Z,0.80
2018-02-06T09:28:32.266Z,0.60
2018-02-06T09:30:58.711Z,0.60
2018-02-06T09:33:25.129Z,0.60
2018-02-06T09:35:51.549Z,0.40
2018-02-06T09:38:17.997Z,0.40
2018-02-06T09:40:44.393Z,0.50
2018-02-06T09:43:11.556Z,0.70
2018-02-06T09:45:37.957Z,0.70
2018-02-06T09:48:04.369Z,0.70
2018-02-06T09:50:30.792Z,0.60
2018-02-06T09:52:57.270Z,0.80
2018-02-06T09:55:24.413Z,0.90
2018-02-06T09:57:50.870Z,0.90
2018-02-06T10:00:17.412Z,0.90
2018-02-06T10:02:43.869Z,1.00
2018-02-06T10:05:10.294Z,1.00
2018-02-06T10:07:36.792Z,1.00
2018-02-06T10:10:04.029Z,1.20
2018-02-06T10:12:31.218Z,1.20
2018-02-06T10:14:57.640Z,1.20
2018-02-06T10:17:24.933Z,1.40
2018-02-06T10:19:51.348Z,1.40
2018-02-06T10:22:17.820Z,1.30
2018-02-06T10:24:44.248Z,1.40
2018-02-06T10:27:10.656Z,1.50
2018-02-06T10:29:37.064Z,1.40
2018-02-06T10:32:03.473Z,1.50
2018-02-06T10:34:30.623Z,1.60
2018-02-06T10:36:57.755Z,1.70
2018-02-06T10:39:24.154Z,1.60
2018-02-06T10:41:50.555Z,1.60
2018-02-06T10:44:17.124Z,1.30
2018-02-06T10:46:43.523Z,1.30
2018-02-06T10:49:09.957Z,1.40
2018-02-06T10:51:36.348Z,1.50
2018-02-06T10:54:02.761Z,1.20
2018-02-06T10:56:29.188Z,1.30
2018-02-06T10:58:55.581Z,1.40
2018-02-06T11:01:22.740Z,1.70
2018-02-06T11:03:49.145Z,1.70
2018-02-06T11:06:15.625Z,1.60
2018-02-06T11:08:42.032Z,1.60
2018-02-06T11:11:08.459Z,1.60
2018-02-06T11:13:35.614Z,1.50
2018-02-06T11:16:02.776Z,1.50
2018-02-06T11:18:29.184Z,1.40
2018-02-06T11:20:56.353Z,1.60
2018-02-06T11:23:22.776Z,1.60
2018-02-06T11:25:49.960Z,1.60
2018-02-06T11:28:16.416Z,1.60
2018-02-06T11:30:43.636Z,1.80
2018-02-06T11:33:10.032Z,1.80
2018-02-06T11:35:37.310Z,2.00
2018-02-06T11:38:03.728Z,2.00
2018-02-06T11:40:30.174Z,2.10
2018-02-06T11:42:56.609Z,2.10
2018-02-06T11:45:23.003Z,1.90
2018-02-06T11:47:49.399Z,1.90
2018-02-06T11:50:15.868Z,1.90
2018-02-06T11:52:42.248Z,2.00
2018-02-06T11:55:08.751Z,2.00
2018-02-06T11:57:35.932Z,2.00
2018-02-06T12:00:02.407Z,2.00
2018-02-06T12:02:28.802Z,2.00
2018-02-06T12:04:55.221Z,1.90
2018-02-06T12:07:21.629Z,1.90
2018-02-06T12:09:48.802Z,1.70
2018-02-06T12:12:15.232Z,1.70
2018-02-06T12:14:42.380Z,1.90
2018-02-06T12:17:08.789Z,1.90
2018-02-06T12:19:35.981Z,1.90
2018-02-06T12:22:02.443Z,1.90
2018-02-06T12:24:28.860Z,1.70
2018-02-06T12:26:55.281Z,1.70
2018-02-06T12:29:21.744Z,1.80
2018-02-06T12:31:48.916Z,1.70
2018-02-06T12:34:15.312Z,1.60
2018-02-06T12:36:41.826Z,1.60
2018-02-06T12:39:08.231Z,1.40
2018-02-06T12:41:34.632Z,1.60
2018-02-06T12:44:01.040Z,1.70
2018-02-06T12:46:27.545Z,1.80
2018-02-06T12:48:53.933Z,1.60
2018-02-06T12:51:20.389Z,1.70
2018-02-06T12:53:46.873Z,1.80
2018-02-06T12:56:13.276Z,1.80
2018-02-06T12:58:46.561Z,2.00
2018-02-06T13:01:12.970Z,2.00
2018-02-06T13:03:40.888Z,2.00
2018-02-06T13:06:08.123Z,2.00
2018-02-06T13:08:34.568Z,1.90
2018-02-06T13:11:01.025Z,1.90
2018-02-06T13:13:27.432Z,1.80
2018-02-06T13:15:53.844Z,1.60
2018-02-06T13:18:21.144Z,1.50
2018-02-06T13:20:47.596Z,1.50
2018-02-06T13:23:13.996Z,1.50
2018-02-06T13:25:40.436Z,1.50
2018-02-06T13:28:06.859Z,1.50
2018-02-06T13:30:33.440Z,1.60
2018-02-06T13:32:59.869Z,1.80
2018-02-06T13:35:26.317Z,1.80
2018-02-06T13:37:53.484Z,1.80
2018-02-06T13:40:19.936Z,1.80
2018-02-06T13:42:46.353Z,1.90
2018-02-06T13:45:12.766Z,2.00
2018-02-06T13:47:39.969Z,1.70
2018-02-06T13:50:06.358Z,1.70
2018-02-06T13:52:33.534Z,1.90
2018-02-06T13:54:59.974Z,1.90
2018-02-06T13:57:32.144Z,2.00
2018-02-06T13:59:58.549Z,2.10
2018-02-06T14:02:24.969Z,2.10
2018-02-06T14:04:52.199Z,2.00
2018-02-06T14:07:18.633Z,1.90
2018-02-06T14:09:45.034Z,1.90
2018-02-06T14:14:38.472Z,2.10
2018-02-06T14:17:06.812Z,2.00
2018-02-06T14:19:34.393Z,2.00
2018-02-06T14:22:02.776Z,1.70
2018-02-06T14:24:31.134Z,1.90
2018-02-06T14:26:58.746Z,1.90
2018-02-06T14:29:26.393Z,2.00
2018-02-06T14:31:53.995Z,2.10
2018-02-06T14:34:21.581Z,2.10
2018-02-06T14:36:50.111Z,2.00
2018-02-06T14:39:18.526Z,2.10
2018-02-06T14:41:46.139Z,2.00
2018-02-06T14:44:13.826Z,2.20
2018-02-06T14:46:41.433Z,2.20
2018-02-06T14:49:09.979Z,2.20
2018-02-06T14:51:37.658Z,2.20
2018-02-06T14:54:05.247Z,2.20
2018-02-06T14:56:33.664Z,2.30
2018-02-06T14:59:01.246Z,2.30
2018-02-06T15:01:29.318Z,2.30
2018-02-06T15:03:57.201Z,2.30
2018-02-06T15:06:25.381Z,2.40
2018-02-06T15:08:53.034Z,2.40
2018-02-06T15:11:20.714Z,2.40
2018-02-06T15:13:48.465Z,2.40
2018-02-06T15:16:16.653Z,2.20
2018-02-06T15:18:45.044Z,2.20
2018-02-06T15:21:13.425Z,2.20
2018-02-06T15:23:41.798Z,2.10
2018-02-06T15:26:10.155Z,2.10
2018-02-06T15:28:37.732Z,2.10
2018-02-06T15:31:06.105Z,2.00
2018-02-06T15:33:34.472Z,2.00
2018-02-06T15:36:02.166Z,2.00
2018-02-06T15:38:30.522Z,2.10
2018-02-06T15:40:58.358Z,2.10
2018-02-06T15:43:25.936Z,2.10
2018-02-06T15:45:53.517Z,2.10
2018-02-06T15:48:21.881Z,2.10
2018-02-06T15:50:49.472Z,2.10
2018-02-06T15:53:17.332Z,2.10
2018-02-06T15:55:45.757Z,2.20
2018-02-06T15:58:13.446Z,2.10
2018-02-06T16:00:41.503Z,2.20
2018-02-06T16:03:09.100Z,2.10
2018-02-06T16:05:37.444Z,2.10
2018-02-06T16:08:05.033Z,2.10
2018-02-06T16:10:32.737Z,2.10
2018-02-06T16:13:00.385Z,2.10
2018-02-06T16:15:28.139Z,2.10
2018-02-06T16:17:55.923Z,2.00
2018-02-06T16:20:24.711Z,2.00
2018-02-06T16:22:52.313Z,2.00
2018-02-06T16:25:19.893Z,2.00
2018-02-06T16:27:48.289Z,1.90
2018-02-06T16:30:16.110Z,1.90
2018-02-06T16:32:43.685Z,2.00
2018-02-06T16:35:11.298Z,2.00
2018-02-06T16:37:38.897Z,1.90
2018-02-06T16:40:06.790Z,1.80
2018-02-06T16:42:35.177Z,1.90
2018-02-06T16:45:03.559Z,1.80
2018-02-06T16:47:31.165Z,1.80
2018-02-06T16:49:59.111Z,1.80
2018-02-06T16:52:26.820Z,1.70
2018-02-06T16:54:54.450Z,1.70
2018-02-06T16:57:22.040Z,1.70
2018-02-06T16:59:49.664Z,1.70
2018-02-06T17:02:29.063Z,1.60
2018-02-06T17:04:57.424Z,1.60
2018-02-06T17:07:27.573Z,1.50
2018-02-06T17:09:55.189Z,1.50
2018-02-06T17:12:22.770Z,1.60
2018-02-06T17:14:50.491Z,1.50
2018-02-06T17:17:18.122Z,1.50
2018-02-06T17:19:45.746Z,1.50
2018-02-06T17:22:13.360Z,1.40
2018-02-06T17:24:41.016Z,1.30
2018-02-06T17:27:09.382Z,1.20
2018-02-06T17:29:36.981Z,1.20
2018-02-06T17:32:04.595Z,1.20
2018-02-06T17:34:33.072Z,1.20
2018-02-06T17:37:00.658Z,1.20
2018-02-06T17:39:28.379Z,1.20
2018-02-06T17:41:56.753Z,1.10
2018-02-06T17:44:25.237Z,1.10
2018-02-06T17:46:53.590Z,1.10
2018-02-06T17:49:21.226Z,1.10
2018-02-06T17:51:48.867Z,1.10
2018-02-06T17:54:16.471Z,1.10
2018-02-06T17:56:44.090Z,1.10
2018-02-06T17:59:11.749Z,1.10
2018-02-06T18:01:39.326Z,1.10
2018-02-06T18:04:06.949Z,1.00
2018-02-06T18:06:35.393Z,1.10
2018-02-06T18:09:02.969Z,1.10
2018-02-06T18:11:30.573Z,1.00
2018-02-06T18:13:58.231Z,1.00
2018-02-06T18:16:25.844Z,1.00
2018-02-06T18:18:54.211Z,1.00
2018-02-06T18:21:22.598Z,1.00
2018-02-06T18:23:50.200Z,1.00
2018-02-06T18:26:17.813Z,1.00
2018-02-06T18:28:45.709Z,0.90
2018-02-06T18:31:14.099Z,0.90
2018-02-06T18:33:42.457Z,0.80
2018-02-06T18:36:10.087Z,0.80
2018-02-06T18:38:37.693Z,0.80
2018-02-06T18:41:05.382Z,0.80
2018-02-06T18:43:33.003Z,0.80
2018-02-06T18:46:00.577Z,0.80
2018-02-06T18:48:29.009Z,0.70
2018-02-06T18:50:56.584Z,0.70
2018-02-06T18:53:24.221Z,0.60
2018-02-06T18:55:51.865Z,0.60
2018-02-06T18:58:19.541Z,0.60
2018-02-06T19:00:47.181Z,0.60
2018-02-06T19:03:15.357Z,0.50
2018-02-06T19:05:42.981Z,0.50
2018-02-06T19:08:10.697Z,0.50
2018-02-06T19:10:38.343Z,0.50
2018-02-06T19:13:06.108Z,0.60
2018-02-06T19:15:33.764Z,0.60
2018-02-06T19:18:02.154Z,0.50
2018-02-06T19:20:29.736Z,0.50
2018-02-06T19:22:58.129Z,0.60
2018-02-06T19:25:25.749Z,0.60
2018-02-06T19:27:53.345Z,0.60
2018-02-06T19:30:20.962Z,0.60
2018-02-06T19:32:48.588Z,0.70
2018-02-06T19:35:16.242Z,0.70
2018-02-06T19:37:43.837Z,0.70
2018-02-06T19:40:11.440Z,0.70
2018-02-06T19:42:39.055Z,0.70
2018-02-06T19:45:07.516Z,0.70
2018-02-06T19:47:35.129Z,0.70
2018-02-06T19:50:02.705Z,0.70
2018-02-06T19:52:30.421Z,0.70
2018-02-06T19:54:58.012Z,0.70
2018-02-06T19:57:25.598Z,0.70
2018-02-06T19:59:53.256Z,0.70
2018-02-06T20:02:20.869Z,0.70
2018-02-06T20:04:48.461Z,0.70
2018-02-06T20:07:16.112Z,0.70
2018-02-06T20:09:44.485Z,0.60
2018-02-06T20:12:12.108Z,0.60
2018-02-06T20:14:40.471Z,0.60
2018-02-06T20:17:08.102Z,0.60
2018-02-06T20:19:35.703Z,0.60
2018-02-06T20:21:44.641Z,0.50
2018-02-06T20:22:48.055Z,0.50
2018-02-06T20:23:51.667Z,0.50
2018-02-06T20:24:54.395Z,0.50
2018-02-06T20:25:57.769Z,0.50
2018-02-06T20:27:01.154Z,0.50
2018-02-06T20:28:04.526Z,0.50
2018-02-06T20:29:07.141Z,0.50
2018-02-06T20:30:09.736Z,0.50
2018-02-06T20:31:12.344Z,0.50
2018-02-06T20:32:15.741Z,0.50
2018-02-06T20:33:18.389Z,0.40
2018-02-06T20:34:21.000Z,0.50
2018-02-06T20:35:23.581Z,0.50
2018-02-06T20:36:26.205Z,0.50
2018-02-06T20:37:29.560Z,0.50
2018-02-06T20:38:32.233Z,0.50
2018-02-06T20:39:35.821Z,0.50
2018-02-06T20:40:38.418Z,0.50
2018-02-06T20:41:41.799Z,0.50
2018-02-06T20:44:32.961Z,0.50
2018-02-06T20:46:35.577Z,0.40
2018-02-06T20:48:38.343Z,0.40
2018-02-06T20:50:41.091Z,0.30
2018-02-06T20:52:43.721Z,0.30
2018-02-06T20:54:46.352Z,0.30
2018-02-06T20:56:48.965Z,0.30
2018-02-06T20:58:51.594Z,0.20
2018-02-06T21:00:54.206Z,0.20
2018-02-06T21:02:56.817Z,0.20
2018-02-06T21:04:59.448Z,0.20
2018-02-06T21:07:02.076Z,0.10
2018-02-06T21:09:04.690Z,0.10
2018-02-06T21:11:07.298Z,0.00
2018-02-06T21:13:10.653Z,0.00
2018-02-06T21:15:13.292Z,0.00
2018-02-06T21:17:15.882Z,-0.10
2018-02-06T21:19:18.600Z,-0.10
2018-02-06T21:21:21.208Z,-0.20
2018-02-06T21:23:23.803Z,-0.20
2018-02-06T21:25:26.420Z,-0.20
2018-02-06T21:27:29.020Z,-0.20
2018-02-06T21:29:32.410Z,-0.20
2018-02-06T21:31:35.834Z,-0.20
2018-02-06T21:33:38.441Z,-0.20
2018-02-06T21:35:41.052Z,-0.20
2018-02-06T21:37:44.417Z,-0.20
2018-02-06T21:39:47.085Z,-0.20
2018-02-06T21:41:49.716Z,-0.10
2018-02-06T21:43:52.314Z,-0.20
2018-02-06T21:45:54.932Z,-0.20
2018-02-06T21:47:57.513Z,-0.30
2018-02-06T21:50:00.900Z,-0.30
2018-02-06T21:52:03.509Z,-0.30
2018-02-06T21:54:06.109Z,-0.40
2018-02-06T21:56:08.714Z,-0.30
2018-02-06T21:58:11.297Z,-0.40
2018-02-06T22:00:13.910Z,-0.40
2018-02-06T22:02:16.532Z,-0.40
2018-02-06T22:04:19.152Z,-0.40
2018-02-06T22:06:22.653Z,-0.40
2018-02-06T22:08:25.267Z,-0.40
2018-02-06T22:10:27.895Z,-0.50
2018-02-06T22:12:30.625Z,-0.40
2018-02-06T22:14:33.225Z,-0.50
2018-02-06T22:16:36.590Z,-0.50
2018-02-06T22:18:39.231Z,-0.50
2018-02-06T22:20:41.842Z,-0.50
2018-02-06T22:22:44.482Z,-0.50
2018-02-06T22:24:47.137Z,-0.60
2018-02-06T22:26:49.730Z,-0.60
2018-02-06T22:28:52.348Z,-0.60
2018-02-06T22:30:54.946Z,-0.60
2018-02-06T22:32:58.316Z,-0.60
2018-02-06T22:35:00.925Z,-0.60
2018-02-06T22:37:03.534Z,-0.60
2018-02-06T22:39:07.070Z,-0.60
2018-02-06T22:41:09.716Z,-0.60
2018-02-06T22:43:12.306Z,-0.50
2018-02-06T22:45:14.936Z,-0.50
2018-02-06T22:47:17.560Z,-0.50
2018-02-06T22:49:20.167Z,-0.50
2018-02-06T22:51:22.781Z,-0.50
2018-02-06T22:53:26.153Z,-0.50
2018-02-06T22:55:28.739Z,-0.50
2018-02-06T22:57:31.349Z,-0.50
2018-02-06T22:59:33.997Z,-0.50
2018-02-06T23:01:36.608Z,-0.50
2018-02-06T23:03:39.245Z,-0.50
2018-02-06T23:05:41.840Z,-0.50
2018-02-06T23:07:44.455Z,-0.40
2018-02-06T23:09:47.118Z,-0.40
2018-02-06T23:11:49.720Z,-0.50
2018-02-06T23:13:52.327Z,-0.50
2018-02-06T23:15:54.905Z,-0.50
2018-02-06T23:17:57.522Z,-0.60
2018-02-06T23:20:00.902Z,-0.80
2018-02-06T23:22:04.310Z,-0.80
2018-02-06T23:24:06.989Z,-0.80
2018-02-06T23:26:09.594Z,-0.80
2018-02-06T23:28:12.189Z,-0.80
2018-02-06T23:30:14.798Z,-0.80
2018-02-06T23:32:18.177Z,-0.70
2018-02-06T23:34:20.761Z,-0.70
2018-02-06T23:36:24.153Z,-0.70
2018-02-06T23:38:27.540Z,-0.70
2018-02-06T23:40:30.137Z,-0.70
2018-02-06T23:42:32.761Z,-0.70
2018-02-06T23:44:35.357Z,-0.80
2018-02-06T23:46:38.001Z,-0.70
2018-02-06T23:48:40.651Z,-0.70
2018-02-06T23:50:43.261Z,-0.80
2018-02-06T23:52:45.851Z,-0.80
2018-02-06T23:54:48.469Z,-0.80
2018-02-06T23:56:51.069Z,-0.80
2018-02-06T23:58:54.665Z,-0.80
